createdAt,value
2023-04-12T00:02:22.053Z,66.70
2023-04-12T00:04:55.235Z,65.80
2023-04-12T00:07:25.020Z,67.70
2023-04-12T00:09:51.639Z,68.90
2023-04-12T00:12:19.257Z,70.30
2023-04-12T00:14:46.136Z,69.90
2023-04-12T00:17:12.829Z,69.60
2023-04-12T00:19:43.086Z,69.60
2023-04-12T00:22:09.772Z,69.90
2023-04-12T00:24:38.358Z,70.20
2023-04-12T00:27:05.919Z,70.80
2023-04-12T00:29:32.850Z,70.40
2023-04-12T00:32:03.439Z,70.60
2023-04-12T00:34:32.674Z,71.10
2023-04-12T00:36:59.897Z,70.30
2023-04-12T00:39:26.533Z,69.60
2023-04-12T00:41:53.109Z,69.30
2023-04-12T00:44:24.679Z,69.90
2023-04-12T00:46:51.408Z,70.10
2023-04-12T00:49:18.054Z,69.90
2023-04-12T00:51:44.796Z,69.60
2023-04-12T00:54:11.549Z,69.50
2023-04-12T00:56:38.315Z,69.00
2023-04-12T00:59:07.696Z,70.10
2023-04-12T01:01:34.501Z,70.00
2023-04-12T01:04:04.847Z,70.70
2023-04-12T01:06:47.351Z,70.40
2023-04-12T01:09:27.361Z,70.00
2023-04-12T01:11:57.244Z,70.60
2023-04-12T01:14:33.897Z,69.50
2023-04-12T01:17:03.710Z,69.30
2023-04-12T01:19:35.978Z,69.60
2023-04-12T01:22:21.341Z,69.40
2023-04-12T01:25:07.110Z,70.30
2023-04-12T01:27:33.655Z,70.90
2023-04-12T01:30:01.198Z,69.90
2023-04-12T01:32:27.863Z,69.80
2023-04-12T01:34:57.771Z,70.10
2023-04-12T01:37:24.410Z,69.00
2023-04-12T01:39:51.297Z,68.20
2023-04-12T01:42:23.405Z,69.80
2023-04-12T01:44:52.606Z,68.90
2023-04-12T01:47:21.372Z,69.10
2023-04-12T01:50:03.220Z,67.40
2023-04-12T01:52:31.390Z,67.40
2023-04-12T01:55:00.906Z,67.30
2023-04-12T01:57:27.758Z,66.60
2023-04-12T01:59:56.011Z,67.50
2023-04-12T02:02:25.494Z,67.20
2023-04-12T02:04:52.493Z,68.10
2023-04-12T02:07:20.451Z,67.30
2023-04-12T02:09:47.058Z,67.40
2023-04-12T02:12:13.616Z,67.30
2023-04-12T02:14:40.130Z,67.20
2023-04-12T02:17:08.037Z,67.40
2023-04-12T02:19:34.651Z,66.90
2023-04-12T02:22:02.087Z,67.90
2023-04-12T02:24:28.655Z,68.80
2023-04-12T02:26:57.998Z,68.30
2023-04-12T02:29:24.737Z,67.40
2023-04-12T02:31:51.322Z,69.40
2023-04-12T02:34:21.372Z,68.70
2023-04-12T02:36:48.661Z,69.10
2023-04-12T02:39:18.819Z,69.30
2023-04-12T02:41:45.965Z,69.90
2023-04-12T02:44:15.174Z,70.60
2023-04-12T02:46:43.926Z,69.30
2023-04-12T02:49:12.918Z,68.80
2023-04-12T02:51:42.104Z,69.60
2023-04-12T02:54:08.708Z,69.00
2023-04-12T02:56:36.037Z,70.50
2023-04-12T02:59:02.851Z,70.50
2023-04-12T03:01:34.231Z,69.80
2023-04-12T03:04:02.168Z,70.90
2023-04-12T03:06:30.165Z,70.10
2023-04-12T03:08:58.092Z,70.50
2023-04-12T03:11:24.630Z,70.20
2023-04-12T03:13:52.315Z,70.30
2023-04-12T03:16:23.421Z,71.00
2023-04-12T03:18:52.820Z,71.10
2023-04-12T03:21:19.562Z,71.70
2023-04-12T03:23:48.580Z,70.40
2023-04-12T03:26:20.352Z,69.00
2023-04-12T03:28:47.575Z,69.40
2023-04-12T03:31:14.177Z,70.70
2023-04-12T03:33:40.933Z,69.90
2023-04-12T03:36:07.838Z,70.30
2023-04-12T03:38:36.613Z,71.30
2023-04-12T03:41:03.223Z,70.50
2023-04-12T03:43:35.951Z,71.30
2023-04-12T03:46:08.129Z,71.40
2023-04-12T03:48:34.971Z,71.00
2023-04-12T03:51:08.514Z,71.70
2023-04-12T03:53:35.278Z,71.80
2023-04-12T03:56:01.869Z,70.60
2023-04-12T03:58:30.845Z,72.60
2023-04-12T04:00:58.177Z,72.20
2023-04-12T04:03:26.996Z,71.80
2023-04-12T04:05:53.944Z,71.60
2023-04-12T04:08:23.046Z,71.60
2023-04-12T04:10:49.651Z,71.20
2023-04-12T04:13:16.216Z,71.10
2023-04-12T04:15:42.863Z,71.20
2023-04-12T04:18:09.430Z,69.80
2023-04-12T04:20:36.032Z,70.60
2023-04-12T04:23:02.801Z,71.30
2023-04-12T04:25:33.399Z,71.60
2023-04-12T04:28:02.636Z,71.30
2023-04-12T04:30:29.221Z,71.10
2023-04-12T04:32:55.950Z,71.20
2023-04-12T04:35:26.625Z,72.80
2023-04-12T04:37:53.816Z,71.80
2023-04-12T04:40:22.017Z,72.80
2023-04-12T04:42:54.305Z,72.90
2023-04-12T04:45:27.625Z,72.70
2023-04-12T04:47:54.817Z,73.60
2023-04-12T04:50:28.068Z,74.00
2023-04-12T04:52:54.711Z,73.70
2023-04-12T04:55:21.820Z,74.40
2023-04-12T04:57:50.658Z,75.10
2023-04-12T05:00:21.534Z,75.10
2023-04-12T05:02:48.453Z,75.90
2023-04-12T05:05:16.163Z,76.50
2023-04-12T05:07:45.658Z,75.90
2023-04-12T05:10:12.341Z,75.50
2023-04-12T05:12:41.320Z,76.60
2023-04-12T05:15:11.525Z,75.70
2023-04-12T05:17:39.034Z,76.40
2023-04-12T05:20:08.096Z,76.30
2023-04-12T05:22:35.224Z,76.70
2023-04-12T05:25:04.330Z,76.40
2023-04-12T05:27:31.116Z,76.50
